sensor_id;sensor_type;location;lat;lon;timestamp;temperature;humidity
1351;DHT22;669;50.206;9.998;2022-09-19T00:01:50;7.50;76.90
1351;DHT22;669;50.206;9.998;2022-09-19T00:04:20;7.50;76.20
1351;DHT22;669;50.206;9.998;2022-09-19T00:06:51;7.50;77.30
1351;DHT22;669;50.206;9.998;2022-09-19T00:09:22;7.50;76.40
1351;DHT22;669;50.206;9.998;2022-09-19T00:11:50;7.50;75.60
1351;DHT22;669;50.206;9.998;2022-09-19T00:14:22;7.60;77.70
1351;DHT22;669;50.206;9.998;2022-09-19T00:16:55;7.60;76.90
1351;DHT22;669;50.206;9.998;2022-09-19T00:19:24;7.60;77.60
1351;DHT22;669;50.206;9.998;2022-09-19T00:21:55;7.60;77.30
1351;DHT22;669;50.206;9.998;2022-09-19T00:24:23;7.60;76.80
1351;DHT22;669;50.206;9.998;2022-09-19T00:27:09;7.60;77.50
1351;DHT22;669;50.206;9.998;2022-09-19T00:29:39;7.60;77.10
1351;DHT22;669;50.206;9.998;2022-09-19T00:32:09;7.60;77.00
1351;DHT22;669;50.206;9.998;2022-09-19T00:34:40;7.60;77.60
1351;DHT22;669;50.206;9.998;2022-09-19T00:37:10;7.50;77.60
1351;DHT22;669;50.206;9.998;2022-09-19T00:39:38;7.50;78.60
1351;DHT22;669;50.206;9.998;2022-09-19T00:42:13;7.50;78.60
1351;DHT22;669;50.206;9.998;2022-09-19T00:44:53;7.50;78.80
1351;DHT22;669;50.206;9.998;2022-09-19T00:47:25;7.50;77.90
1351;DHT22;669;50.206;9.998;2022-09-19T00:49:58;7.50;79.10
1351;DHT22;669;50.206;9.998;2022-09-19T00:52:33;7.60;80.40
1351;DHT22;669;50.206;9.998;2022-09-19T00:55:03;7.60;80.10
1351;DHT22;669;50.206;9.998;2022-09-19T00:57:39;7.60;81.30
1351;DHT22;669;50.206;9.998;2022-09-19T01:00:10;7.60;81.30
1351;DHT22;669;50.206;9.998;2022-09-19T01:02:39;7.70;80.70
1351;DHT22;669;50.206;9.998;2022-09-19T01:05:08;7.70;80.00
1351;DHT22;669;50.206;9.998;2022-09-19T01:07:45;7.70;80.00
1351;DHT22;669;50.206;9.998;2022-09-19T01:10:26;7.70;80.10
1351;DHT22;669;50.206;9.998;2022-09-19T01:13:01;7.70;81.10
1351;DHT22;669;50.206;9.998;2022-09-19T01:15:41;7.80;80.60
1351;DHT22;669;50.206;9.998;2022-09-19T01:18:13;7.80;80.20
1351;DHT22;669;50.206;9.998;2022-09-19T01:20:57;7.80;79.70
1351;DHT22;669;50.206;9.998;2022-09-19T01:24:23;7.80;79.40
1351;DHT22;669;50.206;9.998;2022-09-19T01:27:18;7.80;79.50
1351;DHT22;669;50.206;9.998;2022-09-19T01:29:53;7.90;79.90
1351;DHT22;669;50.206;9.998;2022-09-19T01:32:28;7.90;79.60
1351;DHT22;669;50.206;9.998;2022-09-19T01:35:02;7.90;79.30
1351;DHT22;669;50.206;9.998;2022-09-19T01:37:33;7.90;79.20
1351;DHT22;669;50.206;9.998;2022-09-19T01:40:05;7.90;79.40
1351;DHT22;669;50.206;9.998;2022-09-19T01:42:33;7.90;79.50
1351;DHT22;669;50.206;9.998;2022-09-19T01:45:05;7.90;79.70
1351;DHT22;669;50.206;9.998;2022-09-19T01:47:44;8.00;79.70
1351;DHT22;669;50.206;9.998;2022-09-19T01:50:19;8.00;79.60
1351;DHT22;669;50.206;9.998;2022-09-19T01:53:00;8.00;78.90
1351;DHT22;669;50.206;9.998;2022-09-19T01:55:33;8.00;79.40
1351;DHT22;669;50.206;9.998;2022-09-19T01:58:09;8.00;79.60
1351;DHT22;669;50.206;9.998;2022-09-19T02:00:44;8.00;79.80
1351;DHT22;669;50.206;9.998;2022-09-19T02:03:21;8.00;79.50
1351;DHT22;669;50.206;9.998;2022-09-19T02:05:55;8.00;79.50
1351;DHT22;669;50.206;9.998;2022-09-19T02:08:31;8.00;79.70
1351;DHT22;669;50.206;9.998;2022-09-19T02:11:03;8.00;79.40
1351;DHT22;669;50.206;9.998;2022-09-19T02:13:34;8.10;79.40
1351;DHT22;669;50.206;9.998;2022-09-19T02:16:10;8.00;79.50
1351;DHT22;669;50.206;9.998;2022-09-19T02:18:43;8.10;79.70
1351;DHT22;669;50.206;9.998;2022-09-19T02:21:14;8.00;79.70
1351;DHT22;669;50.206;9.998;2022-09-19T02:23:49;8.10;79.40
1351;DHT22;669;50.206;9.998;2022-09-19T02:26:21;8.10;79.40
1351;DHT22;669;50.206;9.998;2022-09-19T02:28:56;8.10;79.10
1351;DHT22;669;50.206;9.998;2022-09-19T02:31:26;8.10;79.10
1351;DHT22;669;50.206;9.998;2022-09-19T02:33:56;8.10;79.60
1351;DHT22;669;50.206;9.998;2022-09-19T02:36:29;8.10;79.60
1351;DHT22;669;50.206;9.998;2022-09-19T02:39:01;8.10;79.90
1351;DHT22;669;50.206;9.998;2022-09-19T02:41:34;8.20;80.00
1351;DHT22;669;50.206;9.998;2022-09-19T02:44:11;8.20;79.10
1351;DHT22;669;50.206;9.998;2022-09-19T02:46:51;8.20;79.40
1351;DHT22;669;50.206;9.998;2022-09-19T02:49:30;8.20;80.10
1351;DHT22;669;50.206;9.998;2022-09-19T02:52:06;8.20;80.10
1351;DHT22;669;50.206;9.998;2022-09-19T02:54:37;8.20;80.40
1351;DHT22;669;50.206;9.998;2022-09-19T02:57:09;8.20;80.80
1351;DHT22;669;50.206;9.998;2022-09-19T02:59:43;8.20;81.00
1351;DHT22;669;50.206;9.998;2022-09-19T03:02:17;8.20;81.40
1351;DHT22;669;50.206;9.998;2022-09-19T03:04:50;8.30;81.90
1351;DHT22;669;50.206;9.998;2022-09-19T03:07:24;8.30;81.80
1351;DHT22;669;50.206;9.998;2022-09-19T03:10:00;8.30;82.10
1351;DHT22;669;50.206;9.998;2022-09-19T03:12:33;8.30;81.50
1351;DHT22;669;50.206;9.998;2022-09-19T03:15:06;8.30;81.50
1351;DHT22;669;50.206;9.998;2022-09-19T03:17:38;8.30;81.50
1351;DHT22;669;50.206;9.998;2022-09-19T03:20:08;8.30;82.20
1351;DHT22;669;50.206;9.998;2022-09-19T03:22:38;8.40;82.00
1351;DHT22;669;50.206;9.998;2022-09-19T03:25:08;8.40;81.40
1351;DHT22;669;50.206;9.998;2022-09-19T03:27:36;8.40;81.30
1351;DHT22;669;50.206;9.998;2022-09-19T03:30:06;8.40;81.00
1351;DHT22;669;50.206;9.998;2022-09-19T03:32:41;8.40;80.80
1351;DHT22;669;50.206;9.998;2022-09-19T03:35:09;8.40;80.80
1351;DHT22;669;50.206;9.998;2022-09-19T03:37:37;8.40;81.10
1351;DHT22;669;50.206;9.998;2022-09-19T03:40:07;8.40;81.20
1351;DHT22;669;50.206;9.998;2022-09-19T03:42:36;8.40;81.40
1351;DHT22;669;50.206;9.998;2022-09-19T03:45:05;8.40;81.60
1351;DHT22;669;50.206;9.998;2022-09-19T03:47:33;8.40;81.70
1351;DHT22;669;50.206;9.998;2022-09-19T03:50:04;8.40;82.00
1351;DHT22;669;50.206;9.998;2022-09-19T03:52:32;8.50;81.90
1351;DHT22;669;50.206;9.998;2022-09-19T03:55:01;8.40;81.60
1351;DHT22;669;50.206;9.998;2022-09-19T03:57:28;8.50;82.20
1351;DHT22;669;50.206;9.998;2022-09-19T03:59:56;8.50;81.80
1351;DHT22;669;50.206;9.998;2022-09-19T04:02:24;8.50;81.50
1351;DHT22;669;50.206;9.998;2022-09-19T04:04:52;8.50;81.10
1351;DHT22;669;50.206;9.998;2022-09-19T04:07:23;8.50;81.00
1351;DHT22;669;50.206;9.998;2022-09-19T04:09:53;8.60;81.00
1351;DHT22;669;50.206;9.998;2022-09-19T04:12:22;8.60;80.90
1351;DHT22;669;50.206;9.998;2022-09-19T04:14:50;8.60;80.80
1351;DHT22;669;50.206;9.998;2022-09-19T04:17:19;8.60;81.00
1351;DHT22;669;50.206;9.998;2022-09-19T04:19:49;8.60;81.20
1351;DHT22;669;50.206;9.998;2022-09-19T04:22:18;8.60;82.00
1351;DHT22;669;50.206;9.998;2022-09-19T04:24:49;8.60;81.40
1351;DHT22;669;50.206;9.998;2022-09-19T04:27:19;8.60;80.80
1351;DHT22;669;50.206;9.998;2022-09-19T04:29:47;8.60;81.70
1351;DHT22;669;50.206;9.998;2022-09-19T04:32:15;8.70;81.50
1351;DHT22;669;50.206;9.998;2022-09-19T04:34:43;8.70;81.50
1351;DHT22;669;50.206;9.998;2022-09-19T04:37:11;8.60;81.10
1351;DHT22;669;50.206;9.998;2022-09-19T04:39:42;8.70;80.90
1351;DHT22;669;50.206;9.998;2022-09-19T04:42:11;8.70;80.60
1351;DHT22;669;50.206;9.998;2022-09-19T04:44:39;8.70;80.90
1351;DHT22;669;50.206;9.998;2022-09-19T04:47:07;8.70;80.80
1351;DHT22;669;50.206;9.998;2022-09-19T04:49:37;8.70;81.30
1351;DHT22;669;50.206;9.998;2022-09-19T04:52:06;8.70;81.60
1351;DHT22;669;50.206;9.998;2022-09-19T04:54:37;8.70;80.20
1351;DHT22;669;50.206;9.998;2022-09-19T04:57:07;8.70;80.30
1351;DHT22;669;50.206;9.998;2022-09-19T04:59:37;8.70;80.00
1351;DHT22;669;50.206;9.998;2022-09-19T05:02:05;8.70;80.20
1351;DHT22;669;50.206;9.998;2022-09-19T05:04:35;8.70;80.20
1351;DHT22;669;50.206;9.998;2022-09-19T05:07:04;8.80;80.40
1351;DHT22;669;50.206;9.998;2022-09-19T05:09:33;8.80;80.00
1351;DHT22;669;50.206;9.998;2022-09-19T05:12:01;8.80;78.80
1351;DHT22;669;50.206;9.998;2022-09-19T05:14:30;8.80;79.10
1351;DHT22;669;50.206;9.998;2022-09-19T05:16:59;8.80;78.80
1351;DHT22;669;50.206;9.998;2022-09-19T05:19:27;8.80;79.20
1351;DHT22;669;50.206;9.998;2022-09-19T05:21:55;8.80;78.90
1351;DHT22;669;50.206;9.998;2022-09-19T05:24:23;8.80;78.90
1351;DHT22;669;50.206;9.998;2022-09-19T05:26:54;8.80;79.70
1351;DHT22;669;50.206;9.998;2022-09-19T05:29:23;8.80;79.30
1351;DHT22;669;50.206;9.998;2022-09-19T05:31:51;8.80;79.60
1351;DHT22;669;50.206;9.998;2022-09-19T05:34:22;8.80;79.70
1351;DHT22;669;50.206;9.998;2022-09-19T05:36:52;8.80;80.00
1351;DHT22;669;50.206;9.998;2022-09-19T05:39:20;8.90;80.70
1351;DHT22;669;50.206;9.998;2022-09-19T05:41:47;8.90;80.90
1351;DHT22;669;50.206;9.998;2022-09-19T05:44:16;8.90;80.60
1351;DHT22;669;50.206;9.998;2022-09-19T05:46:44;8.90;80.00
1351;DHT22;669;50.206;9.998;2022-09-19T05:49:11;8.90;80.20
1351;DHT22;669;50.206;9.998;2022-09-19T05:51:41;8.90;79.70
1351;DHT22;669;50.206;9.998;2022-09-19T05:54:09;8.90;79.30
1351;DHT22;669;50.206;9.998;2022-09-19T05:56:36;8.90;78.80
1351;DHT22;669;50.206;9.998;2022-09-19T05:59:04;9.00;78.30
1351;DHT22;669;50.206;9.998;2022-09-19T06:01:32;9.00;77.90
1351;DHT22;669;50.206;9.998;2022-09-19T06:04:00;9.00;78.00
1351;DHT22;669;50.206;9.998;2022-09-19T06:06:28;9.00;79.60
1351;DHT22;669;50.206;9.998;2022-09-19T06:08:58;9.00;79.10
1351;DHT22;669;50.206;9.998;2022-09-19T06:11:26;9.10;79.40
1351;DHT22;669;50.206;9.998;2022-09-19T06:13:54;9.10;79.00
1351;DHT22;669;50.206;9.998;2022-09-19T06:16:39;9.10;79.40
1351;DHT22;669;50.206;9.998;2022-09-19T06:19:09;9.10;79.00
1351;DHT22;669;50.206;9.998;2022-09-19T06:21:36;9.10;79.00
1351;DHT22;669;50.206;9.998;2022-09-19T06:24:06;9.20;79.40
1351;DHT22;669;50.206;9.998;2022-09-19T06:26:35;9.20;79.00
1351;DHT22;669;50.206;9.998;2022-09-19T06:29:04;9.30;79.10
1351;DHT22;669;50.206;9.998;2022-09-19T06:31:34;9.30;79.90
1351;DHT22;669;50.206;9.998;2022-09-19T06:34:03;9.30;79.70
1351;DHT22;669;50.206;9.998;2022-09-19T06:36:30;9.40;79.10
1351;DHT22;669;50.206;9.998;2022-09-19T06:38:58;9.40;77.00
1351;DHT22;669;50.206;9.998;2022-09-19T06:41:28;9.40;77.30
1351;DHT22;669;50.206;9.998;2022-09-19T06:43:57;9.50;77.20
1351;DHT22;669;50.206;9.998;2022-09-19T06:46:25;9.50;77.50
1351;DHT22;669;50.206;9.998;2022-09-19T06:48:53;9.60;78.00
1351;DHT22;669;50.206;9.998;2022-09-19T06:51:22;9.60;78.00
1351;DHT22;669;50.206;9.998;2022-09-19T06:53:49;9.70;77.40
1351;DHT22;669;50.206;9.998;2022-09-19T06:56:17;9.80;75.70
1351;DHT22;669;50.206;9.998;2022-09-19T06:58:47;9.80;74.90
1351;DHT22;669;50.206;9.998;2022-09-19T07:01:14;9.80;73.70
1351;DHT22;669;50.206;9.998;2022-09-19T07:03:43;9.80;73.50
1351;DHT22;669;50.206;9.998;2022-09-19T07:06:11;9.70;75.30
1351;DHT22;669;50.206;9.998;2022-09-19T07:08:39;9.70;76.40
1351;DHT22;669;50.206;9.998;2022-09-19T07:11:07;9.70;77.00
1351;DHT22;669;50.206;9.998;2022-09-19T07:13:35;9.60;77.10
1351;DHT22;669;50.206;9.998;2022-09-19T07:16:05;9.60;77.60
1351;DHT22;669;50.206;9.998;2022-09-19T07:18:33;9.60;76.60
1351;DHT22;669;50.206;9.998;2022-09-19T07:21:03;9.70;77.20
1351;DHT22;669;50.206;9.998;2022-09-19T07:23:31;9.60;77.30
1351;DHT22;669;50.206;9.998;2022-09-19T07:25:58;9.60;77.10
1351;DHT22;669;50.206;9.998;2022-09-19T07:28:27;9.70;77.80
1351;DHT22;669;50.206;9.998;2022-09-19T07:30:57;9.70;78.30
1351;DHT22;669;50.206;9.998;2022-09-19T07:33:27;9.80;77.30
1351;DHT22;669;50.206;9.998;2022-09-19T07:35:57;9.80;76.70
1351;DHT22;669;50.206;9.998;2022-09-19T07:38:25;9.90;77.30
1351;DHT22;669;50.206;9.998;2022-09-19T07:40:55;9.80;78.00
1351;DHT22;669;50.206;9.998;2022-09-19T07:43:23;9.80;78.80
1351;DHT22;669;50.206;9.998;2022-09-19T07:45:52;9.80;78.70
1351;DHT22;669;50.206;9.998;2022-09-19T07:48:20;9.80;78.60
1351;DHT22;669;50.206;9.998;2022-09-19T07:50:50;9.80;77.80
1351;DHT22;669;50.206;9.998;2022-09-19T07:53:24;9.80;77.80
1351;DHT22;669;50.206;9.998;2022-09-19T07:55:53;9.80;78.50
1351;DHT22;669;50.206;9.998;2022-09-19T07:58:24;9.80;79.60
1351;DHT22;669;50.206;9.998;2022-09-19T08:00:53;9.80;79.70
1351;DHT22;669;50.206;9.998;2022-09-19T08:03:21;9.90;79.70
1351;DHT22;669;50.206;9.998;2022-09-19T08:05:51;9.90;79.00
1351;DHT22;669;50.206;9.998;2022-09-19T08:08:21;9.90;78.20
1351;DHT22;669;50.206;9.998;2022-09-19T08:10:49;9.90;79.10
1351;DHT22;669;50.206;9.998;2022-09-19T08:13:18;9.90;79.70
1351;DHT22;669;50.206;9.998;2022-09-19T08:15:48;9.90;79.70
1351;DHT22;669;50.206;9.998;2022-09-19T08:18:17;10.00;78.70
1351;DHT22;669;50.206;9.998;2022-09-19T08:20:45;10.00;78.80
1351;DHT22;669;50.206;9.998;2022-09-19T08:23:17;10.00;80.10
1351;DHT22;669;50.206;9.998;2022-09-19T08:25:47;10.00;80.50
1351;DHT22;669;50.206;9.998;2022-09-19T08:28:18;10.10;81.50
1351;DHT22;669;50.206;9.998;2022-09-19T08:30:48;10.20;79.50
1351;DHT22;669;50.206;9.998;2022-09-19T08:33:16;10.20;77.90
1351;DHT22;669;50.206;9.998;2022-09-19T08:35:45;10.30;77.90
1351;DHT22;669;50.206;9.998;2022-09-19T08:38:13;10.30;78.30
1351;DHT22;669;50.206;9.998;2022-09-19T08:41:08;10.40;77.30
1351;DHT22;669;50.206;9.998;2022-09-19T08:43:53;10.40;78.40
1351;DHT22;669;50.206;9.998;2022-09-19T08:46:28;10.50;77.90
1351;DHT22;669;50.206;9.998;2022-09-19T08:49:04;10.60;79.00
1351;DHT22;669;50.206;9.998;2022-09-19T08:51:35;10.70;76.60
1351;DHT22;669;50.206;9.998;2022-09-19T08:54:11;10.80;72.50
1351;DHT22;669;50.206;9.998;2022-09-19T08:56:42;11.00;69.10
1351;DHT22;669;50.206;9.998;2022-09-19T08:59:13;11.10;70.30
1351;DHT22;669;50.206;9.998;2022-09-19T09:01:42;11.10;72.00
1351;DHT22;669;50.206;9.998;2022-09-19T09:04:25;11.20;71.80
1351;DHT22;669;50.206;9.998;2022-09-19T09:07:13;11.20;71.80
1351;DHT22;669;50.206;9.998;2022-09-19T09:10:05;11.30;70.40
1351;DHT22;669;50.206;9.998;2022-09-19T09:12:43;11.30;68.40
1351;DHT22;669;50.206;9.998;2022-09-19T09:15:21;11.30;69.40
1351;DHT22;669;50.206;9.998;2022-09-19T09:18:26;11.30;68.00
1351;DHT22;669;50.206;9.998;2022-09-19T09:21:03;11.40;68.20
1351;DHT22;669;50.206;9.998;2022-09-19T09:23:37;11.40;68.80
1351;DHT22;669;50.206;9.998;2022-09-19T09:26:11;11.40;68.50
1351;DHT22;669;50.206;9.998;2022-09-19T09:28:45;11.60;66.40
1351;DHT22;669;50.206;9.998;2022-09-19T09:31:17;11.70;65.10
1351;DHT22;669;50.206;9.998;2022-09-19T09:33:56;11.70;62.90
1351;DHT22;669;50.206;9.998;2022-09-19T09:36:28;11.70;64.00
1351;DHT22;669;50.206;9.998;2022-09-19T09:39:03;11.60;64.00
1351;DHT22;669;50.206;9.998;2022-09-19T09:41:38;11.60;62.80
1351;DHT22;669;50.206;9.998;2022-09-19T09:44:38;11.70;63.20
1351;DHT22;669;50.206;9.998;2022-09-19T09:47:21;11.70;63.30
1351;DHT22;669;50.206;9.998;2022-09-19T09:49:58;11.80;62.60
1351;DHT22;669;50.206;9.998;2022-09-19T09:52:42;11.80;63.10
1351;DHT22;669;50.206;9.998;2022-09-19T09:55:31;11.80;62.90
1351;DHT22;669;50.206;9.998;2022-09-19T09:58:22;11.80;62.20
1351;DHT22;669;50.206;9.998;2022-09-19T10:01:09;11.90;63.10
1351;DHT22;669;50.206;9.998;2022-09-19T10:04:02;12.10;62.30
1351;DHT22;669;50.206;9.998;2022-09-19T10:06:38;12.30;63.10
1351;DHT22;669;50.206;9.998;2022-09-19T10:09:13;12.50;62.30
1351;DHT22;669;50.206;9.998;2022-09-19T10:11:45;12.70;60.20
1351;DHT22;669;50.206;9.998;2022-09-19T10:14:38;13.00;60.50
1351;DHT22;669;50.206;9.998;2022-09-19T10:17:08;13.20;58.60
1351;DHT22;669;50.206;9.998;2022-09-19T10:19:40;13.10;59.40
1351;DHT22;669;50.206;9.998;2022-09-19T10:22:09;13.10;59.80
1351;DHT22;669;50.206;9.998;2022-09-19T10:24:44;13.20;57.70
1351;DHT22;669;50.206;9.998;2022-09-19T10:27:13;13.20;57.70
1351;DHT22;669;50.206;9.998;2022-09-19T10:29:49;13.20;58.00
1351;DHT22;669;50.206;9.998;2022-09-19T10:32:22;13.20;57.70
1351;DHT22;669;50.206;9.998;2022-09-19T10:34:51;13.10;58.00
1351;DHT22;669;50.206;9.998;2022-09-19T10:37:22;13.00;58.20
1351;DHT22;669;50.206;9.998;2022-09-19T10:39:58;13.00;57.60
1351;DHT22;669;50.206;9.998;2022-09-19T10:42:33;12.90;57.20
1351;DHT22;669;50.206;9.998;2022-09-19T10:45:16;12.80;59.10
1351;DHT22;669;50.206;9.998;2022-09-19T10:47:46;12.60;62.60
1351;DHT22;669;50.206;9.998;2022-09-19T10:50:17;12.50;63.30
1351;DHT22;669;50.206;9.998;2022-09-19T10:52:47;12.50;63.00
1351;DHT22;669;50.206;9.998;2022-09-19T10:55:20;12.30;63.00
1351;DHT22;669;50.206;9.998;2022-09-19T10:57:53;12.40;63.10
1351;DHT22;669;50.206;9.998;2022-09-19T11:00:27;12.40;63.10
1351;DHT22;669;50.206;9.998;2022-09-19T11:03:00;12.40;63.80
1351;DHT22;669;50.206;9.998;2022-09-19T11:05:30;12.40;63.50
1351;DHT22;669;50.206;9.998;2022-09-19T11:07:58;12.40;62.90
1351;DHT22;669;50.206;9.998;2022-09-19T11:10:35;12.40;64.30
1351;DHT22;669;50.206;9.998;2022-09-19T11:13:14;12.50;63.90
1351;DHT22;669;50.206;9.998;2022-09-19T11:16:09;12.60;64.50
1351;DHT22;669;50.206;9.998;2022-09-19T11:19:03;13.00;63.10
1351;DHT22;669;50.206;9.998;2022-09-19T11:21:44;13.20;62.50
1351;DHT22;669;50.206;9.998;2022-09-19T11:24:30;13.50;58.20
1351;DHT22;669;50.206;9.998;2022-09-19T11:30:01;13.60;59.50
1351;DHT22;669;50.206;9.998;2022-09-19T11:35:26;13.40;59.80
1351;DHT22;669;50.206;9.998;2022-09-19T11:38:08;13.30;60.60
1351;DHT22;669;50.206;9.998;2022-09-19T11:41:11;13.20;61.20
1351;DHT22;669;50.206;9.998;2022-09-19T11:43:51;13.20;60.80
1351;DHT22;669;50.206;9.998;2022-09-19T11:46:29;13.50;60.80
1351;DHT22;669;50.206;9.998;2022-09-19T11:49:19;14.10;62.80
1351;DHT22;669;50.206;9.998;2022-09-19T11:51:58;14.70;57.60
1351;DHT22;669;50.206;9.998;2022-09-19T11:54:42;15.30;56.60
1351;DHT22;669;50.206;9.998;2022-09-19T11:57:21;15.50;55.20
1351;DHT22;669;50.206;9.998;2022-09-19T12:00:10;15.50;53.60
1351;DHT22;669;50.206;9.998;2022-09-19T12:02:58;15.10;54.80
1351;DHT22;669;50.206;9.998;2022-09-19T12:05:40;14.50;54.30
1351;DHT22;669;50.206;9.998;2022-09-19T12:08:19;13.80;58.30
1351;DHT22;669;50.206;9.998;2022-09-19T12:10:59;13.30;61.20
1351;DHT22;669;50.206;9.998;2022-09-19T12:13:36;12.80;64.10
1351;DHT22;669;50.206;9.998;2022-09-19T12:16:15;12.40;67.60
1351;DHT22;669;50.206;9.998;2022-09-19T12:18:54;12.10;69.90
1351;DHT22;669;50.206;9.998;2022-09-19T12:21:31;12.00;72.70
1351;DHT22;669;50.206;9.998;2022-09-19T12:24:05;11.90;76.20
1351;DHT22;669;50.206;9.998;2022-09-19T12:26:55;11.80;74.50
1351;DHT22;669;50.206;9.998;2022-09-19T12:29:28;11.70;75.20
1351;DHT22;669;50.206;9.998;2022-09-19T12:32:02;11.80;75.90
1351;DHT22;669;50.206;9.998;2022-09-19T12:34:38;11.90;76.60
1351;DHT22;669;50.206;9.998;2022-09-19T12:37:15;12.00;77.50
1351;DHT22;669;50.206;9.998;2022-09-19T12:39:55;12.30;77.20
1351;DHT22;669;50.206;9.998;2022-09-19T12:42:29;12.50;78.50
1351;DHT22;669;50.206;9.998;2022-09-19T12:45:05;12.90;78.60
1351;DHT22;669;50.206;9.998;2022-09-19T12:47:48;13.30;72.40
1351;DHT22;669;50.206;9.998;2022-09-19T12:50:21;13.60;71.40
1351;DHT22;669;50.206;9.998;2022-09-19T12:53:07;13.80;68.50
1351;DHT22;669;50.206;9.998;2022-09-19T12:55:41;13.90;66.60
1351;DHT22;669;50.206;9.998;2022-09-19T12:58:13;13.80;64.60
1351;DHT22;669;50.206;9.998;2022-09-19T13:00:44;13.90;63.20
1351;DHT22;669;50.206;9.998;2022-09-19T13:03:15;13.80;63.20
1351;DHT22;669;50.206;9.998;2022-09-19T13:05:51;13.70;63.30
1351;DHT22;669;50.206;9.998;2022-09-19T13:08:23;13.60;61.10
1351;DHT22;669;50.206;9.998;2022-09-19T13:10:59;13.50;64.10
1351;DHT22;669;50.206;9.998;2022-09-19T13:13:33;13.30;63.90
1351;DHT22;669;50.206;9.998;2022-09-19T13:16:05;13.10;65.60
1351;DHT22;669;50.206;9.998;2022-09-19T13:18:34;13.00;67.20
1351;DHT22;669;50.206;9.998;2022-09-19T13:21:25;12.90;68.30
1351;DHT22;669;50.206;9.998;2022-09-19T13:24:20;12.80;67.90
1351;DHT22;669;50.206;9.998;2022-09-19T13:26:54;12.70;67.30
1351;DHT22;669;50.206;9.998;2022-09-19T13:29:42;12.60;64.90
1351;DHT22;669;50.206;9.998;2022-09-19T13:32:27;12.40;66.30
1351;DHT22;669;50.206;9.998;2022-09-19T13:35:12;12.20;68.70
1351;DHT22;669;50.206;9.998;2022-09-19T13:37:54;12.00;68.00
1351;DHT22;669;50.206;9.998;2022-09-19T13:40:40;11.80;71.00
1351;DHT22;669;50.206;9.998;2022-09-19T13:43:22;11.60;70.80
1351;DHT22;669;50.206;9.998;2022-09-19T13:45:57;11.50;72.40
1351;DHT22;669;50.206;9.998;2022-09-19T13:48:38;11.40;75.00
1351;DHT22;669;50.206;9.998;2022-09-19T13:51:11;11.50;74.60
1351;DHT22;669;50.206;9.998;2022-09-19T13:53:45;11.60;75.90
1351;DHT22;669;50.206;9.998;2022-09-19T13:56:24;11.80;77.20
1351;DHT22;669;50.206;9.998;2022-09-19T13:59:16;11.90;74.90
1351;DHT22;669;50.206;9.998;2022-09-19T14:01:57;12.20;74.20
1351;DHT22;669;50.206;9.998;2022-09-19T14:04:37;12.40;74.10
1351;DHT22;669;50.206;9.998;2022-09-19T14:07:26;12.60;71.70
1351;DHT22;669;50.206;9.998;2022-09-19T14:10:19;12.80;73.20
1351;DHT22;669;50.206;9.998;2022-09-19T14:12:59;13.10;72.90
1351;DHT22;669;50.206;9.998;2022-09-19T14:21:55;13.30;66.00
1351;DHT22;669;50.206;9.998;2022-09-19T14:24:50;13.40;65.40
1351;DHT22;669;50.206;9.998;2022-09-19T14:34:16;13.80;68.00
1351;DHT22;669;50.206;9.998;2022-09-19T14:37:02;14.10;64.60
1351;DHT22;669;50.206;9.998;2022-09-19T14:39:47;14.20;63.90
1351;DHT22;669;50.206;9.998;2022-09-19T14:42:35;14.20;63.80
1351;DHT22;669;50.206;9.998;2022-09-19T14:48:22;14.00;65.30
1351;DHT22;669;50.206;9.998;2022-09-19T14:51:12;13.90;65.70
1351;DHT22;669;50.206;9.998;2022-09-19T14:53:46;13.80;65.80
1351;DHT22;669;50.206;9.998;2022-09-19T14:56:17;13.80;66.20
1351;DHT22;669;50.206;9.998;2022-09-19T14:58:49;13.70;66.30
1351;DHT22;669;50.206;9.998;2022-09-19T15:01:22;13.70;67.30
1351;DHT22;669;50.206;9.998;2022-09-19T15:03:57;13.70;67.50
1351;DHT22;669;50.206;9.998;2022-09-19T15:06:31;13.70;66.80
1351;DHT22;669;50.206;9.998;2022-09-19T15:09:00;13.90;65.50
1351;DHT22;669;50.206;9.998;2022-09-19T15:11:28;14.00;64.90
1351;DHT22;669;50.206;9.998;2022-09-19T15:13:56;14.00;65.50
1351;DHT22;669;50.206;9.998;2022-09-19T15:16:25;14.10;64.20
1351;DHT22;669;50.206;9.998;2022-09-19T15:18:55;14.20;61.80
1351;DHT22;669;50.206;9.998;2022-09-19T15:21:27;14.30;62.00
1351;DHT22;669;50.206;9.998;2022-09-19T15:23:57;14.30;60.20
1351;DHT22;669;50.206;9.998;2022-09-19T15:26:27;14.20;61.40
1351;DHT22;669;50.206;9.998;2022-09-19T15:28:59;14.10;63.20
1351;DHT22;669;50.206;9.998;2022-09-19T15:31:29;13.90;62.00
1351;DHT22;669;50.206;9.998;2022-09-19T15:34:01;13.80;61.00
1351;DHT22;669;50.206;9.998;2022-09-19T15:36:34;13.80;61.00
1351;DHT22;669;50.206;9.998;2022-09-19T15:39:04;13.60;61.90
1351;DHT22;669;50.206;9.998;2022-09-19T15:41:33;13.50;62.30
1351;DHT22;669;50.206;9.998;2022-09-19T15:44:02;13.40;62.10
1351;DHT22;669;50.206;9.998;2022-09-19T15:46:44;13.20;64.10
1351;DHT22;669;50.206;9.998;2022-09-19T15:49:20;13.10;66.30
1351;DHT22;669;50.206;9.998;2022-09-19T15:51:57;12.90;68.20
1351;DHT22;669;50.206;9.998;2022-09-19T15:54:28;12.70;64.40
1351;DHT22;669;50.206;9.998;2022-09-19T15:56:58;12.30;60.50
1351;DHT22;669;50.206;9.998;2022-09-19T15:59:35;11.90;59.70
1351;DHT22;669;50.206;9.998;2022-09-19T16:02:04;11.50;58.90
1351;DHT22;669;50.206;9.998;2022-09-19T16:04:35;11.20;59.30
1351;DHT22;669;50.206;9.998;2022-09-19T16:07:04;11.00;63.50
1351;DHT22;669;50.206;9.998;2022-09-19T16:10:09;10.90;67.00
1351;DHT22;669;50.206;9.998;2022-09-19T16:12:42;10.80;68.00
1351;DHT22;669;50.206;9.998;2022-09-19T16:15:22;10.70;68.40
1351;DHT22;669;50.206;9.998;2022-09-19T16:18:13;10.80;68.90
1351;DHT22;669;50.206;9.998;2022-09-19T16:20:56;10.80;71.30
1351;DHT22;669;50.206;9.998;2022-09-19T16:23:36;10.80;73.60
1351;DHT22;669;50.206;9.998;2022-09-19T16:26:05;10.90;72.60
1351;DHT22;669;50.206;9.998;2022-09-19T16:28:37;10.90;73.90
1351;DHT22;669;50.206;9.998;2022-09-19T16:31:11;10.90;72.60
1351;DHT22;669;50.206;9.998;2022-09-19T16:33:48;10.80;73.50
1351;DHT22;669;50.206;9.998;2022-09-19T16:36:17;10.80;74.80
1351;DHT22;669;50.206;9.998;2022-09-19T16:42:01;10.80;77.30
1351;DHT22;669;50.206;9.998;2022-09-19T16:44:39;10.80;77.50
1351;DHT22;669;50.206;9.998;2022-09-19T16:47:14;10.80;78.30
1351;DHT22;669;50.206;9.998;2022-09-19T17:20:58;11.20;79.90
1351;DHT22;669;50.206;9.998;2022-09-19T17:24:05;11.10;77.10
1351;DHT22;669;50.206;9.998;2022-09-19T17:31:00;10.90;77.50
1351;DHT22;669;50.206;9.998;2022-09-19T17:37:13;10.70;77.40
1351;DHT22;669;50.206;9.998;2022-09-19T17:39:56;10.60;78.50
1351;DHT22;669;50.206;9.998;2022-09-19T17:42:31;10.50;77.10
1351;DHT22;669;50.206;9.998;2022-09-19T17:45:16;10.40;78.00
1351;DHT22;669;50.206;9.998;2022-09-19T17:47:46;10.30;77.90
1351;DHT22;669;50.206;9.998;2022-09-19T17:50:14;10.20;78.90
1351;DHT22;669;50.206;9.998;2022-09-19T17:52:43;10.20;79.00
1351;DHT22;669;50.206;9.998;2022-09-19T17:55:11;10.10;79.80
1351;DHT22;669;50.206;9.998;2022-09-19T17:57:39;10.20;80.10
1351;DHT22;669;50.206;9.998;2022-09-19T18:00:08;10.00;79.90
1351;DHT22;669;50.206;9.998;2022-09-19T18:02:36;10.00;80.60
1351;DHT22;669;50.206;9.998;2022-09-19T18:05:21;10.00;80.40
1351;DHT22;669;50.206;9.998;2022-09-19T18:07:51;10.00;80.70
1351;DHT22;669;50.206;9.998;2022-09-19T18:10:22;9.90;82.10
1351;DHT22;669;50.206;9.998;2022-09-19T18:12:51;9.90;82.10
1351;DHT22;669;50.206;9.998;2022-09-19T18:15:21;9.80;82.60
1351;DHT22;669;50.206;9.998;2022-09-19T18:17:51;9.90;82.80